Time;durP1;ratioP1;P1;durP2;ratioP2;P2;SDS_P1;SDS_P2;PMS_P1;PMS_P2;Temp;Humidity;BMP_temperature;BMP_pressure;BME280_temperature;BME280_humidity;BME280_pressure;Samples;Min_cycle;Max_cycle;Signal;HPM_P1;HPM_P2
2024/02/21 00:00:25;;;;;;;15.07;5.00;;;7.20;99.90;;;;;;5074514;28;20032;-52
2024/02/21 00:02:50;;;;;;;17.73;4.72;;;7.20;99.90;;;;;;5075409;28;20477;-52
2024/02/21 00:05:16;;;;;;;10.93;4.70;;;7.20;99.90;;;;;;5072713;28;20263;-53
2024/02/21 00:07:41;;;;;;;14.23;4.18;;;7.20;99.90;;;;;;5078356;28;20012;-54
2024/02/21 00:10:08;;;;;;;11.63;4.68;;;7.20;99.90;;;;;;5080506;28;20028;-52
2024/02/21 00:12:34;;;;;;;16.85;4.78;;;7.20;99.90;;;;;;5080927;28;20032;-52
2024/02/21 00:15:00;;;;;;;14.73;4.93;;;7.30;99.90;;;;;;5076915;28;20395;-51
2024/02/21 00:17:26;;;;;;;19.13;4.82;;;7.30;99.90;;;;;;5074741;28;20050;-54
2024/02/21 00:19:51;;;;;;;14.48;4.47;;;7.30;99.90;;;;;;5078405;28;20096;-52
2024/02/21 00:22:17;;;;;;;13.43;4.78;;;7.20;99.90;;;;;;5074968;28;20129;-53
2024/02/21 00:24:42;;;;;;;14.27;4.35;;;7.20;99.90;;;;;;5076400;28;20028;-54
2024/02/21 00:27:08;;;;;;;14.90;4.63;;;7.30;99.90;;;;;;5076544;28;20038;-50
2024/02/21 00:29:34;;;;;;;14.27;4.57;;;7.30;99.90;;;;;;5076166;28;20619;-54
2024/02/21 00:32:00;;;;;;;14.68;5.03;;;7.30;99.90;;;;;;5080970;28;20063;-52
2024/02/21 00:34:25;;;;;;;13.25;4.28;;;7.30;99.90;;;;;;5076458;28;20438;-53
2024/02/21 00:36:51;;;;;;;16.35;5.22;;;7.30;99.90;;;;;;5079760;28;20421;-51
2024/02/21 00:39:16;;;;;;;16.60;5.68;;;7.30;99.90;;;;;;5082712;28;20027;-49
2024/02/21 00:41:42;;;;;;;17.50;5.13;;;7.30;99.90;;;;;;5081097;28;20024;-51
2024/02/21 00:44:07;;;;;;;17.58;4.32;;;7.30;99.90;;;;;;5080711;28;20489;-51
2024/02/21 00:46:33;;;;;;;17.65;4.60;;;7.40;99.90;;;;;;5080785;28;20380;-54
2024/02/21 00:48:58;;;;;;;12.45;4.75;;;7.40;99.90;;;;;;5080652;28;20457;-49
2024/02/21 00:51:23;;;;;;;14.63;4.85;;;7.40;99.90;;;;;;5080721;28;20099;-53
2024/02/21 00:53:49;;;;;;;15.57;4.78;;;7.40;99.90;;;;;;5077462;28;20036;-53
2024/02/21 00:56:16;;;;;;;15.45;4.70;;;7.40;99.90;;;;;;5076208;28;20048;-53
2024/02/21 00:58:42;;;;;;;20.45;4.65;;;7.40;99.90;;;;;;5075057;28;20028;-55
2024/02/21 01:01:07;;;;;;;12.25;4.35;;;7.40;99.90;;;;;;5076213;28;20028;-54
2024/02/21 01:03:32;;;;;;;15.50;5.53;;;7.40;99.90;;;;;;5072448;28;20024;-50
2024/02/21 01:05:58;;;;;;;11.70;4.93;;;7.40;99.90;;;;;;5077787;28;20023;-54
2024/02/21 01:08:24;;;;;;;15.15;5.30;;;7.40;99.90;;;;;;5078832;28;20039;-52
2024/02/21 01:10:49;;;;;;;20.70;5.13;;;7.40;99.90;;;;;;5078202;28;20016;-53
2024/02/21 01:13:15;;;;;;;19.95;4.88;;;7.40;99.90;;;;;;5080724;28;20127;-50
2024/02/21 01:15:40;;;;;;;15.27;5.22;;;7.40;99.90;;;;;;5080358;28;20031;-52
2024/02/21 01:18:06;;;;;;;21.38;4.72;;;7.40;99.90;;;;;;5080201;28;20043;-54
2024/02/21 01:20:31;;;;;;;15.18;4.85;;;7.50;99.90;;;;;;5080406;28;20050;-55
2024/02/21 01:22:57;;;;;;;11.45;4.30;;;7.50;99.90;;;;;;5082539;28;20028;-53
2024/02/21 01:25:23;;;;;;;17.20;5.55;;;7.40;99.90;;;;;;5080335;28;20030;-54
2024/02/21 01:27:48;;;;;;;17.75;4.57;;;7.50;99.90;;;;;;5080441;28;20490;-53
2024/02/21 01:30:14;;;;;;;19.80;5.03;;;7.50;99.90;;;;;;5079719;28;20400;-52
2024/02/21 01:32:39;;;;;;;15.73;4.50;;;7.50;99.90;;;;;;5079020;28;20031;-53
2024/02/21 01:35:05;;;;;;;16.73;4.32;;;7.40;99.90;;;;;;5079922;28;20060;-54
2024/02/21 01:37:31;;;;;;;12.45;4.70;;;7.40;99.90;;;;;;5082069;28;20432;-54
2024/02/21 01:39:56;;;;;;;15.82;5.25;;;7.40;99.90;;;;;;5080057;28;20031;-53
2024/02/21 01:42:22;;;;;;;14.70;4.32;;;7.50;99.90;;;;;;5079899;28;20016;-52
2024/02/21 01:44:47;;;;;;;15.93;4.38;;;7.40;99.90;;;;;;5080161;28;20020;-54
2024/02/21 01:47:14;;;;;;;14.63;4.20;;;7.40;99.90;;;;;;5079864;28;20035;-52
2024/02/21 01:49:41;;;;;;;22.60;5.35;;;7.40;99.90;;;;;;5076461;28;20534;-54
2024/02/21 01:52:08;;;;;;;16.40;4.72;;;7.40;99.90;;;;;;5077409;28;20069;-54
2024/02/21 01:54:34;;;;;;;17.88;5.50;;;7.40;99.90;;;;;;5078442;28;20718;-52
2024/02/21 01:57:00;;;;;;;12.68;5.53;;;7.50;99.90;;;;;;5079514;28;20032;-53
2024/02/21 01:59:25;;;;;;;15.57;4.20;;;7.50;99.90;;;;;;5079236;28;20024;-52
2024/02/21 02:01:52;;;;;;;11.43;4.18;;;7.50;99.90;;;;;;5075303;28;20469;-53
2024/02/21 02:04:20;;;;;;;11.52;4.20;;;7.50;99.90;;;;;;5079228;28;20396;-52
2024/02/21 02:06:46;;;;;;;16.27;4.78;;;7.60;99.90;;;;;;5072910;28;20613;-50
2024/02/21 02:09:11;;;;;;;14.93;4.05;;;7.60;99.90;;;;;;5072501;28;20139;-52
2024/02/21 02:11:37;;;;;;;15.88;4.70;;;7.60;99.90;;;;;;5078848;28;20046;-53
2024/02/21 02:14:03;;;;;;;12.55;5.18;;;7.60;99.90;;;;;;5075222;28;20043;-53
2024/02/21 02:16:28;;;;;;;12.68;3.70;;;7.60;99.90;;;;;;5072932;28;20450;-53
2024/02/21 02:18:54;;;;;;;10.60;3.95;;;7.60;99.90;;;;;;5076997;28;20628;-54
2024/02/21 02:21:30;;;;;;;17.92;5.45;;;7.70;99.90;;;;;;5070620;28;20032;-53
2024/02/21 02:23:56;;;;;;;21.17;5.10;;;7.70;99.90;;;;;;5077626;28;20393;-52
2024/02/21 02:26:21;;;;;;;10.25;3.60;;;7.70;99.90;;;;;;5071812;28;20047;-53
2024/02/21 02:28:47;;;;;;;13.15;3.95;;;7.70;99.90;;;;;;5072900;28;20208;-50
2024/02/21 02:31:12;;;;;;;13.43;4.07;;;7.70;99.90;;;;;;5072824;28;20490;-52
2024/02/21 02:33:38;;;;;;;13.05;5.10;;;7.70;99.90;;;;;;5074870;28;20059;-51
2024/02/21 02:36:04;;;;;;;18.05;3.67;;;7.70;99.90;;;;;;5070752;28;20056;-51
2024/02/21 02:38:29;;;;;;;8.50;3.33;;;7.70;99.90;;;;;;5073530;28;20501;-53
2024/02/21 02:40:55;;;;;;;14.43;4.00;;;7.70;99.90;;;;;;5076303;28;20185;-53
2024/02/21 02:43:20;;;;;;;13.05;3.60;;;7.70;99.90;;;;;;5072472;28;20028;-52
2024/02/21 02:45:45;;;;;;;12.25;3.95;;;7.70;99.90;;;;;;5075389;28;20549;-54
2024/02/21 02:48:11;;;;;;;13.63;3.42;;;7.70;99.90;;;;;;5072269;28;20028;-55
2024/02/21 02:50:36;;;;;;;20.83;4.00;;;7.70;99.90;;;;;;5077441;28;20063;-52
2024/02/21 02:53:02;;;;;;;19.02;4.70;;;7.70;99.90;;;;;;5070382;28;20032;-51
2024/02/21 02:55:27;;;;;;;13.40;4.35;;;7.70;99.90;;;;;;5078142;28;20035;-54
2024/02/21 02:57:54;;;;;;;16.70;4.50;;;7.80;99.90;;;;;;5076662;28;20027;-54
2024/02/21 03:00:20;;;;;;;12.10;3.88;;;7.70;99.90;;;;;;5079946;28;20054;-51
2024/02/21 03:02:48;;;;;;;21.33;4.80;;;7.80;99.90;;;;;;5072782;28;20036;-53
2024/02/21 03:05:15;;;;;;;11.93;4.20;;;7.80;99.90;;;;;;5078944;28;20552;-54
2024/02/21 03:07:41;;;;;;;12.68;4.57;;;7.80;99.90;;;;;;5078484;28;20043;-54
2024/02/21 03:10:07;;;;;;;13.50;5.03;;;7.80;99.90;;;;;;5078503;28;20032;-54
2024/02/21 03:12:32;;;;;;;11.25;4.53;;;7.70;99.90;;;;;;5078555;28;20020;-53
2024/02/21 03:14:58;;;;;;;12.63;4.40;;;7.70;99.90;;;;;;5080377;28;20371;-54
2024/02/21 03:17:26;;;;;;;17.08;5.38;;;7.70;99.90;;;;;;5078654;28;20040;-54
2024/02/21 03:19:52;;;;;;;16.83;4.93;;;7.70;99.90;;;;;;5078727;28;20024;-53
2024/02/21 03:22:18;;;;;;;17.65;4.13;;;7.70;99.90;;;;;;5082120;28;20424;-51
2024/02/21 03:24:43;;;;;;;12.23;3.92;;;7.70;99.90;;;;;;5082536;28;20233;-53
2024/02/21 03:27:09;;;;;;;15.02;4.38;;;7.60;99.90;;;;;;5082333;28;20153;-52
2024/02/21 03:29:34;;;;;;;11.68;4.47;;;7.60;99.90;;;;;;5083367;28;20093;-49
2024/02/21 03:32:00;;;;;;;14.18;4.60;;;7.60;99.90;;;;;;5080222;28;20016;-62
2024/02/21 03:34:25;;;;;;;14.85;4.20;;;7.60;99.90;;;;;;5074989;28;20025;-43
2024/02/21 03:36:51;;;;;;;11.82;4.60;;;7.60;99.90;;;;;;5080988;28;20032;-49
2024/02/21 03:39:16;;;;;;;18.05;4.82;;;7.50;99.90;;;;;;5080305;28;20059;-45
2024/02/21 03:41:42;;;;;;;15.45;4.70;;;7.50;99.90;;;;;;5080292;28;20421;-46
2024/02/21 03:44:07;;;;;;;15.18;4.80;;;7.50;99.90;;;;;;5083666;28;20056;-45
2024/02/21 03:46:33;;;;;;;17.92;5.43;;;7.50;99.90;;;;;;5081670;28;20409;-46
2024/02/21 03:48:59;;;;;;;20.27;6.15;;;7.50;99.90;;;;;;5081379;28;20116;-46
2024/02/21 03:51:24;;;;;;;15.35;4.80;;;7.50;99.90;;;;;;5081501;28;20511;-45
2024/02/21 03:53:50;;;;;;;13.25;4.68;;;7.50;99.90;;;;;;5082109;28;20103;-44
2024/02/21 03:56:15;;;;;;;10.50;4.38;;;7.50;99.90;;;;;;5081536;28;20024;-47
2024/02/21 03:58:41;;;;;;;9.63;4.18;;;7.50;99.90;;;;;;5083072;28;20027;-45
2024/02/21 04:01:06;;;;;;;13.30;4.78;;;7.50;99.90;;;;;;5081393;28;20044;-46
2024/02/21 04:03:32;;;;;;;17.38;6.22;;;7.50;99.90;;;;;;5075686;28;20032;-48
2024/02/21 04:05:57;;;;;;;12.35;4.72;;;7.50;99.90;;;;;;5081764;28;20493;-45
2024/02/21 04:08:23;;;;;;;14.95;5.32;;;7.50;99.90;;;;;;5081439;28;20036;-46
2024/02/21 04:10:49;;;;;;;11.23;4.40;;;7.50;99.90;;;;;;5081607;28;20117;-46
2024/02/21 04:13:14;;;;;;;14.18;5.00;;;7.50;99.90;;;;;;5081429;28;20024;-49
2024/02/21 04:15:40;;;;;;;16.25;5.70;;;7.50;99.90;;;;;;5083453;28;20028;-48
2024/02/21 04:18:06;;;;;;;14.75;5.43;;;7.50;99.90;;;;;;5080067;28;20034;-48
2024/02/21 04:20:32;;;;;;;16.25;5.78;;;7.50;99.90;;;;;;5081266;28;20066;-48
2024/02/21 04:22:57;;;;;;;13.55;5.53;;;7.40;99.90;;;;;;5081239;28;20141;-47
2024/02/21 04:25:23;;;;;;;16.05;5.80;;;7.40;99.90;;;;;;5081316;28;20030;-48
2024/02/21 04:27:49;;;;;;;19.27;6.43;;;7.40;99.90;;;;;;5083063;28;20059;-47
2024/02/21 04:30:15;;;;;;;13.95;6.03;;;7.50;99.90;;;;;;5080875;28;20554;-48
2024/02/21 04:32:41;;;;;;;21.30;5.55;;;7.40;99.90;;;;;;5080433;28;20027;-45
2024/02/21 04:35:07;;;;;;;20.60;6.80;;;7.40;99.90;;;;;;5079436;28;20028;-48
2024/02/21 04:37:33;;;;;;;26.25;7.50;;;7.40;99.90;;;;;;5076645;28;20088;-49
2024/02/21 04:39:58;;;;;;;25.67;7.75;;;7.40;99.90;;;;;;5081060;28;20664;-49
2024/02/21 04:42:24;;;;;;;20.95;7.45;;;7.40;99.90;;;;;;5082715;28;20039;-49
2024/02/21 04:44:50;;;;;;;21.02;6.55;;;7.30;99.90;;;;;;5082469;28;20035;-45
2024/02/21 04:47:15;;;;;;;23.80;7.93;;;7.40;99.90;;;;;;5080706;28;20028;-45
2024/02/21 04:49:41;;;;;;;15.65;6.85;;;7.40;99.90;;;;;;5079128;28;20393;-47
2024/02/21 04:52:06;;;;;;;17.25;6.05;;;7.40;99.90;;;;;;5080243;28;20069;-47
2024/02/21 04:54:32;;;;;;;20.02;6.70;;;7.40;99.90;;;;;;5080529;28;20509;-48
2024/02/21 04:56:57;;;;;;;26.45;8.85;;;7.30;99.90;;;;;;5081567;28;20024;-46
2024/02/21 04:59:23;;;;;;;20.92;6.88;;;7.30;99.90;;;;;;5080473;28;20030;-44
2024/02/21 05:01:48;;;;;;;22.95;7.05;;;7.40;99.90;;;;;;5077706;28;20440;-45
2024/02/21 05:04:14;;;;;;;15.32;6.30;;;7.30;99.90;;;;;;5080467;28;20131;-46
2024/02/21 05:06:40;;;;;;;23.50;7.03;;;7.30;99.90;;;;;;5080683;28;20059;-44
2024/02/21 05:09:06;;;;;;;19.63;6.50;;;7.30;99.90;;;;;;5079976;28;20412;-47
2024/02/21 05:11:32;;;;;;;15.05;6.88;;;7.30;99.90;;;;;;5080643;28;20032;-45
2024/02/21 05:13:57;;;;;;;20.75;7.68;;;7.30;99.90;;;;;;5082248;28;20038;-46
2024/02/21 05:16:23;;;;;;;19.98;6.97;;;7.30;99.90;;;;;;5080236;28;20039;-45
2024/02/21 05:18:49;;;;;;;19.00;6.68;;;7.30;99.90;;;;;;5080492;28;20505;-45
2024/02/21 05:21:14;;;;;;;18.92;6.07;;;7.40;99.90;;;;;;5076115;28;20032;-49
2024/02/21 05:23:40;;;;;;;16.98;6.55;;;7.30;99.90;;;;;;5080345;28;20035;-45
2024/02/21 05:26:08;;;;;;;14.30;5.93;;;7.30;99.90;;;;;;5072148;28;20514;-47
2024/02/21 05:28:34;;;;;;;20.67;6.07;;;7.30;99.90;;;;;;5080763;28;20024;-44
2024/02/21 05:31:00;;;;;;;16.27;5.85;;;7.30;99.90;;;;;;5073819;28;20543;-44
2024/02/21 05:33:26;;;;;;;16.80;6.50;;;7.40;99.90;;;;;;5075856;28;20020;-44
2024/02/21 05:35:51;;;;;;;15.77;5.88;;;7.40;99.90;;;;;;5080043;28;20536;-49
2024/02/21 05:38:17;;;;;;;11.85;5.80;;;7.40;99.90;;;;;;5080045;28;20196;-46
2024/02/21 05:40:44;;;;;;;14.40;6.50;;;7.40;99.90;;;;;;5080214;28;20015;-46
2024/02/21 05:43:09;;;;;;;15.93;5.63;;;7.40;99.90;;;;;;5078635;28;20043;-44
2024/02/21 05:45:35;;;;;;;20.10;6.28;;;7.40;99.90;;;;;;5081842;28;20492;-48
2024/02/21 05:48:00;;;;;;;14.50;5.65;;;7.40;99.90;;;;;;5079925;28;20020;-45
2024/02/21 05:50:28;;;;;;;18.48;7.25;;;7.40;99.90;;;;;;5079799;28;20103;-45
2024/02/21 05:52:55;;;;;;;27.20;6.75;;;7.40;99.90;;;;;;5079681;28;20103;-48
2024/02/21 05:55:21;;;;;;;16.02;5.97;;;7.40;99.90;;;;;;5079741;28;20027;-44
2024/02/21 05:57:47;;;;;;;17.00;5.97;;;7.40;99.90;;;;;;5080970;28;20485;-44
2024/02/21 06:00:13;;;;;;;18.00;5.93;;;7.40;99.90;;;;;;5081417;28;20059;-48
2024/02/21 06:02:39;;;;;;;22.58;7.20;;;7.40;99.90;;;;;;5073033;28;20496;-48
2024/02/21 06:05:07;;;;;;;16.52;5.97;;;7.40;99.90;;;;;;5079646;28;20461;-49
2024/02/21 06:07:33;;;;;;;16.60;6.00;;;7.50;99.90;;;;;;5079547;28;20165;-50
2024/02/21 06:09:58;;;;;;;17.20;6.45;;;7.50;99.90;;;;;;5078955;28;20556;-48
2024/02/21 06:12:24;;;;;;;22.48;7.80;;;7.50;99.90;;;;;;5079257;28;20602;-45
2024/02/21 06:14:49;;;;;;;16.90;7.28;;;7.50;99.90;;;;;;5079567;28;20389;-44
2024/02/21 06:17:15;;;;;;;18.23;6.18;;;7.50;99.90;;;;;;5076052;28;20064;-45
2024/02/21 06:19:43;;;;;;;15.20;5.93;;;7.50;99.90;;;;;;5078200;28;20031;-44
2024/02/21 06:22:08;;;;;;;19.30;5.72;;;7.50;99.90;;;;;;5077615;28;20504;-46
2024/02/21 06:24:35;;;;;;;15.77;6.55;;;7.50;99.90;;;;;;5079320;28;20028;-48
2024/02/21 06:27:00;;;;;;;18.90;6.90;;;7.50;99.90;;;;;;5077806;28;20105;-45
2024/02/21 06:29:26;;;;;;;14.57;5.65;;;7.60;99.90;;;;;;5078677;28;20414;-51
2024/02/21 06:31:51;;;;;;;21.92;6.50;;;7.60;99.90;;;;;;5080316;28;20028;-48
2024/02/21 06:34:17;;;;;;;22.17;7.07;;;7.60;99.90;;;;;;5078784;28;20102;-47
2024/02/21 06:36:42;;;;;;;20.77;6.55;;;7.60;99.90;;;;;;5079223;28;20055;-47
2024/02/21 06:39:08;;;;;;;18.95;7.03;;;7.60;99.90;;;;;;5078877;28;20405;-46
2024/02/21 06:41:34;;;;;;;17.85;6.95;;;7.60;99.90;;;;;;5079315;28;20062;-45
2024/02/21 06:43:59;;;;;;;16.50;6.45;;;7.60;99.90;;;;;;5078681;28;20080;-45
2024/02/21 06:46:26;;;;;;;13.43;6.15;;;7.60;99.90;;;;;;5081106;28;20431;-46
2024/02/21 06:48:52;;;;;;;20.50;6.68;;;7.70;99.90;;;;;;5078543;28;20032;-44
2024/02/21 06:51:17;;;;;;;15.68;6.80;;;7.70;99.90;;;;;;5078705;28;20724;-46
2024/02/21 06:53:43;;;;;;;24.80;7.47;;;7.70;99.90;;;;;;5075033;28;20401;-47
2024/02/21 06:56:09;;;;;;;19.15;6.88;;;7.70;99.90;;;;;;5080229;28;20028;-47
2024/02/21 06:58:35;;;;;;;23.20;6.80;;;7.70;99.90;;;;;;5082945;28;20032;-45
2024/02/21 07:01:01;;;;;;;18.38;6.63;;;7.70;99.90;;;;;;5082586;28;20024;-46
2024/02/21 07:03:27;;;;;;;18.58;8.05;;;7.70;99.90;;;;;;5073785;28;20486;-44
2024/02/21 07:05:52;;;;;;;19.02;7.40;;;7.70;99.90;;;;;;5078528;28;20490;-47
2024/02/21 07:08:18;;;;;;;20.40;6.50;;;7.70;99.90;;;;;;5076629;28;20040;-47
2024/02/21 07:10:43;;;;;;;16.00;6.38;;;7.70;99.90;;;;;;5081651;28;20035;-46
2024/02/21 07:13:09;;;;;;;14.85;6.55;;;7.70;99.90;;;;;;5078293;28;20135;-45
2024/02/21 07:15:36;;;;;;;24.23;7.72;;;7.80;99.90;;;;;;5083113;28;20447;-44
2024/02/21 07:18:01;;;;;;;15.18;6.20;;;7.80;99.90;;;;;;5078951;28;20066;-45
2024/02/21 07:20:27;;;;;;;24.35;6.72;;;7.80;99.90;;;;;;5079176;28;20052;-45
2024/02/21 07:22:52;;;;;;;24.10;7.45;;;7.80;99.90;;;;;;5073096;28;20070;-45
2024/02/21 07:25:18;;;;;;;14.95;6.75;;;7.80;99.90;;;;;;5081102;28;20485;-46
2024/02/21 07:27:44;;;;;;;18.10;6.75;;;7.80;99.90;;;;;;5075425;28;20486;-46
2024/02/21 07:30:10;;;;;;;20.00;7.72;;;7.80;99.90;;;;;;5075682;28;20190;-44
2024/02/21 07:32:36;;;;;;;21.63;8.05;;;7.80;99.90;;;;;;5080698;28;20252;-47
2024/02/21 07:35:01;;;;;;;18.60;6.78;;;7.80;99.90;;;;;;5077455;28;20032;-50
2024/02/21 07:37:27;;;;;;;16.90;6.88;;;7.80;99.90;;;;;;5078243;28;20054;-46
2024/02/21 07:39:52;;;;;;;20.42;7.15;;;7.80;99.90;;;;;;5081639;28;20112;-48
2024/02/21 07:42:18;;;;;;;18.60;6.30;;;7.80;99.90;;;;;;5077985;28;20031;-45
2024/02/21 07:44:43;;;;;;;15.80;6.65;;;7.80;99.90;;;;;;5082354;28;20027;-45
2024/02/21 07:47:09;;;;;;;16.92;7.65;;;7.80;99.90;;;;;;5081951;28;20426;-47
2024/02/21 07:49:41;;;;;;;18.13;6.60;;;7.80;99.90;;;;;;5081437;28;20036;-46
2024/02/21 07:52:07;;;;;;;15.05;6.30;;;7.90;99.90;;;;;;5081659;28;20019;-47
2024/02/21 07:54:33;;;;;;;12.27;6.20;;;7.90;99.90;;;;;;5082016;28;20477;-46
2024/02/21 07:56:58;;;;;;;18.35;6.28;;;7.90;99.90;;;;;;5081622;28;20076;-46
2024/02/21 07:59:24;;;;;;;16.15;6.85;;;8.00;99.90;;;;;;5081695;28;20031;-45
2024/02/21 08:01:50;;;;;;;12.88;6.45;;;8.00;99.90;;;;;;5077844;28;20165;-48
2024/02/21 08:04:15;;;;;;;16.92;6.40;;;8.00;99.90;;;;;;5081909;28;20397;-49
2024/02/21 08:06:40;;;;;;;22.70;6.80;;;8.00;99.90;;;;;;5081305;28;20027;-49
2024/02/21 08:09:06;;;;;;;15.77;6.60;;;8.10;99.90;;;;;;5080590;28;20515;-46
2024/02/21 08:11:32;;;;;;;16.20;6.80;;;8.10;99.90;;;;;;5081497;28;20073;-52
2024/02/21 08:13:57;;;;;;;13.93;6.38;;;8.10;99.90;;;;;;5077280;28;20020;-45
2024/02/21 08:16:23;;;;;;;12.43;6.20;;;8.10;99.90;;;;;;5081225;28;20069;-46
2024/02/21 08:18:48;;;;;;;15.00;6.30;;;8.20;99.90;;;;;;5083368;28;20028;-46
2024/02/21 08:21:14;;;;;;;19.05;6.30;;;8.20;99.90;;;;;;5081327;28;20537;-51
2024/02/21 08:23:39;;;;;;;14.50;5.53;;;8.20;99.90;;;;;;5081563;28;20026;-46
2024/02/21 08:26:05;;;;;;;16.80;6.38;;;8.20;99.90;;;;;;5081135;28;20042;-47
2024/02/21 08:28:30;;;;;;;14.02;5.88;;;8.20;99.90;;;;;;5081342;28;20389;-47
2024/02/21 08:30:56;;;;;;;17.45;7.03;;;8.30;99.90;;;;;;5080864;28;20036;-50
2024/02/21 08:33:24;;;;;;;13.43;6.97;;;8.30;99.90;;;;;;5083113;28;20658;-47
2024/02/21 08:35:51;;;;;;;11.13;5.60;;;8.30;99.90;;;;;;5076213;28;20689;-48
2024/02/21 08:38:17;;;;;;;14.45;7.03;;;8.30;99.90;;;;;;5077972;28;20060;-47
2024/02/21 08:40:42;;;;;;;14.52;6.45;;;8.30;99.90;;;;;;5081081;28;20109;-50
2024/02/21 08:43:08;;;;;;;12.65;6.55;;;8.40;99.90;;;;;;5080775;28;20035;-50
2024/02/21 08:45:33;;;;;;;18.25;7.18;;;8.40;99.90;;;;;;5081084;28;20035;-45
2024/02/21 08:47:59;;;;;;;15.82;6.30;;;8.40;99.90;;;;;;5082604;28;20031;-49
2024/02/21 08:50:24;;;;;;;14.05;6.18;;;8.50;99.90;;;;;;5082111;28;20393;-48
2024/02/21 08:52:50;;;;;;;17.05;6.00;;;8.60;99.90;;;;;;5080675;28;20020;-46
2024/02/21 08:55:16;;;;;;;14.52;7.38;;;8.60;99.90;;;;;;5080361;28;20142;-47
2024/02/21 08:57:41;;;;;;;14.38;8.02;;;8.70;99.90;;;;;;5080749;28;20024;-49
2024/02/21 09:00:10;;;;;;;19.30;8.25;;;8.70;99.90;;;;;;5076114;28;20032;-52
2024/02/21 09:02:40;;;;;;;19.63;7.57;;;8.80;99.90;;;;;;5067994;28;20120;-44
2024/02/21 09:05:06;;;;;;;14.82;6.43;;;8.80;99.90;;;;;;5080527;28;20033;-46
2024/02/21 09:07:31;;;;;;;19.15;7.20;;;8.90;99.90;;;;;;5078011;28;20031;-46
2024/02/21 09:09:57;;;;;;;18.05;7.85;;;9.00;99.90;;;;;;5080209;28;20047;-45
2024/02/21 09:12:22;;;;;;;19.00;6.85;;;9.00;99.90;;;;;;5080171;28;20027;-47
2024/02/21 09:14:50;;;;;;;12.90;7.70;;;9.00;99.90;;;;;;5077837;28;20368;-46
2024/02/21 09:17:17;;;;;;;16.17;7.78;;;9.10;99.90;;;;;;5080126;28;20021;-47
2024/02/21 09:19:42;;;;;;;14.27;8.05;;;9.10;99.90;;;;;;5075212;28;20023;-46
2024/02/21 09:22:08;;;;;;;17.77;7.70;;;9.10;99.90;;;;;;5074134;28;20016;-48
2024/02/21 09:24:33;;;;;;;16.80;7.20;;;9.20;99.90;;;;;;5072673;28;20028;-47
2024/02/21 09:27:00;;;;;;;14.25;7.82;;;9.20;99.90;;;;;;5073810;28;20130;-48
2024/02/21 09:29:25;;;;;;;15.10;6.25;;;9.30;99.90;;;;;;5071522;28;20016;-49
2024/02/21 09:31:52;;;;;;;16.83;7.32;;;9.40;99.90;;;;;;5078038;28;20057;-46
2024/02/21 09:34:17;;;;;;;21.48;7.85;;;9.50;99.90;;;;;;5079979;28;20016;-46
2024/02/21 09:36:44;;;;;;;14.30;7.15;;;9.60;99.90;;;;;;5081615;28;20114;-42
2024/02/21 09:39:14;;;;;;;18.15;7.80;;;9.70;99.90;;;;;;5079484;28;20120;-56
2024/02/21 09:41:52;;;;;;;16.17;7.50;;;9.70;99.90;;;;;;5075569;28;20020;-53
2024/02/21 09:44:20;;;;;;;19.38;7.63;;;9.80;99.90;;;;;;5077152;28;20485;-55
2024/02/21 09:46:51;;;;;;;16.58;7.80;;;9.90;99.90;;;;;;5077300;28;20016;-52
2024/02/21 09:49:33;;;;;;;13.88;7.03;;;9.90;99.90;;;;;;5080713;28;20035;-53
2024/02/21 09:52:02;;;;;;;14.43;7.32;;;10.00;99.90;;;;;;5078103;28;20477;-53
2024/02/21 09:54:32;;;;;;;13.52;7.05;;;10.10;99.90;;;;;;5073028;28;20082;-54
2024/02/21 09:59:52;;;;;;;18.35;7.30;;;10.20;99.90;;;;;;5065264;28;20043;-53
2024/02/21 10:02:18;;;;;;;12.48;7.05;;;10.20;99.90;;;;;;5078665;28;20506;-50
2024/02/21 10:04:44;;;;;;;15.20;7.45;;;10.30;99.90;;;;;;5084480;28;20025;-54
2024/02/21 10:07:11;;;;;;;15.15;7.28;;;10.50;99.90;;;;;;5079738;28;20110;-54
2024/02/21 10:09:36;;;;;;;23.08;8.20;;;10.80;99.90;;;;;;5077262;28;20517;-52
2024/02/21 10:12:15;;;;;;;15.02;7.05;;;10.90;99.90;;;;;;5079781;28;20107;-54
2024/02/21 10:14:40;;;;;;;15.27;7.70;;;11.00;99.90;;;;;;5078319;28;20428;-54
2024/02/21 10:17:09;;;;;;;14.10;6.97;;;11.00;99.90;;;;;;5079123;28;20117;-52
2024/02/21 10:19:35;;;;;;;14.98;7.32;;;10.90;99.90;;;;;;5077296;28;20504;-49
2024/02/21 10:22:10;;;;;;;24.05;8.63;;;10.90;99.90;;;;;;5079750;28;20103;-53
2024/02/21 10:24:40;;;;;;;19.25;8.40;;;10.90;99.90;;;;;;5079188;28;20032;-53
2024/02/21 10:27:13;;;;;;;19.00;7.47;;;10.80;99.90;;;;;;5073127;28;20036;-55
2024/02/21 10:29:41;;;;;;;16.25;8.07;;;10.80;99.90;;;;;;5082324;28;20100;-54
2024/02/21 10:32:15;;;;;;;19.00;7.35;;;10.80;99.90;;;;;;5074234;28;20032;-53
2024/02/21 10:34:42;;;;;;;18.85;7.45;;;10.80;99.90;;;;;;5076978;28;20030;-53
2024/02/21 10:37:09;;;;;;;15.82;7.63;;;10.80;99.90;;;;;;5079393;28;20046;-55
2024/02/21 10:39:38;;;;;;;13.73;6.47;;;10.80;99.90;;;;;;5079193;28;20036;-54
2024/02/21 10:42:10;;;;;;;17.98;8.27;;;10.80;99.90;;;;;;5078978;28;20031;-54
2024/02/21 10:44:44;;;;;;;15.40;8.10;;;10.80;99.90;;;;;;5080550;28;20031;-52
2024/02/21 10:47:13;;;;;;;22.25;9.10;;;10.80;99.90;;;;;;5078617;28;20511;-51
2024/02/21 10:49:40;;;;;;;17.90;8.95;;;10.80;99.90;;;;;;5078786;28;20039;-54
2024/02/21 10:52:54;;;;;;;15.98;7.15;;;10.90;99.90;;;;;;5074721;28;20029;-53
2024/02/21 10:55:40;;;;;;;14.82;7.80;;;10.90;99.90;;;;;;5077549;28;20123;-54
2024/02/21 10:58:06;;;;;;;15.05;7.75;;;10.90;99.90;;;;;;5075662;28;20047;-54
2024/02/21 11:00:32;;;;;;;21.27;7.78;;;10.90;99.90;;;;;;5080590;28;20553;-53
2024/02/21 11:02:59;;;;;;;12.93;7.10;;;11.00;99.90;;;;;;5072636;28;20066;-53
2024/02/21 11:05:29;;;;;;;16.58;7.13;;;11.10;99.90;;;;;;5078895;28;20501;-55
2024/02/21 11:07:55;;;;;;;17.50;7.20;;;11.20;99.50;;;;;;5076370;28;20054;-53
2024/02/21 11:10:24;;;;;;;17.77;7.00;;;11.20;99.90;;;;;;5059989;28;20389;-53
2024/02/21 11:13:04;;;;;;;13.50;7.63;;;11.20;99.90;;;;;;5059534;28;20067;-54
2024/02/21 11:15:30;;;;;;;11.50;6.57;;;11.20;99.00;;;;;;5058131;28;20047;-53
2024/02/21 11:17:56;;;;;;;16.38;6.95;;;11.20;99.40;;;;;;5059191;28;20028;-51
2024/02/21 11:20:33;;;;;;;21.85;7.68;;;11.30;99.40;;;;;;5055295;28;20020;-55
2024/02/21 11:23:01;;;;;;;13.57;6.45;;;11.30;99.20;;;;;;5053484;28;20398;-54
2024/02/21 11:25:30;;;;;;;12.07;6.30;;;11.30;99.10;;;;;;5054716;28;20025;-53
2024/02/21 11:28:06;;;;;;;13.25;6.13;;;11.30;98.40;;;;;;5058301;28;20044;-54
2024/02/21 11:30:35;;;;;;;14.38;7.25;;;11.20;98.50;;;;;;5060083;28;20021;-54
2024/02/21 11:33:05;;;;;;;11.48;6.25;;;11.20;98.60;;;;;;5059797;28;20482;-52
2024/02/21 11:35:36;;;;;;;11.35;6.32;;;11.20;98.10;;;;;;5059958;28;20036;-54
2024/02/21 11:38:16;;;;;;;13.50;5.90;;;11.20;98.00;;;;;;5058496;28;20393;-52
2024/02/21 11:40:46;;;;;;;10.68;5.72;;;11.20;98.00;;;;;;5058767;28;20559;-54
2024/02/21 11:43:12;;;;;;;11.38;5.85;;;11.30;97.90;;;;;;5061759;28;20039;-52
2024/02/21 11:45:51;;;;;;;;;;;;;;;;;;;;;
2024/02/21 11:48:20;;;;;;;13.55;5.70;;;11.40;97.70;;;;;;5058249;28;20017;-55
2024/02/21 11:50:56;;;;;;;9.80;5.63;;;11.50;97.50;;;;;;5064575;28;20394;-55
2024/02/21 11:53:22;;;;;;;9.32;5.05;;;11.60;97.10;;;;;;5058960;28;20029;-57
2024/02/21 11:55:50;;;;;;;11.68;4.38;;;11.70;96.90;;;;;;5063772;28;20440;-55
2024/02/21 11:58:20;;;;;;;8.45;4.93;;;11.80;97.20;;;;;;5059844;28;20132;-54
2024/02/21 12:00:46;;;;;;;13.95;5.05;;;12.10;97.10;;;;;;5061629;28;20504;-54
2024/02/21 12:03:11;;;;;;;13.30;5.38;;;12.10;96.70;;;;;;5054334;28;20028;-53
2024/02/21 12:05:37;;;;;;;9.82;5.38;;;12.20;96.40;;;;;;5057693;28;20035;-54
2024/02/21 12:08:05;;;;;;;11.52;5.43;;;12.20;95.40;;;;;;5065419;28;20393;-51
2024/02/21 12:10:31;;;;;;;6.22;3.83;;;12.30;95.40;;;;;;5080900;28;20063;-53
2024/02/21 12:13:08;;;;;;;9.73;4.65;;;12.40;95.20;;;;;;5081372;28;20055;-53
2024/02/21 12:15:40;;;;;;;9.88;5.18;;;12.30;95.70;;;;;;5083576;28;20099;-53
2024/02/21 12:18:05;;;;;;;9.25;4.40;;;12.40;95.00;;;;;;5081175;28;20362;-53
2024/02/21 12:20:32;;;;;;;7.78;4.43;;;12.40;94.20;;;;;;5083213;28;20022;-52
2024/02/21 12:23:00;;;;;;;7.97;4.70;;;12.30;94.40;;;;;;5081209;28;20032;-55
2024/02/21 12:25:31;;;;;;;8.57;4.43;;;12.40;94.10;;;;;;5085004;28;20020;-55
2024/02/21 12:27:56;;;;;;;8.88;4.63;;;12.30;94.20;;;;;;5077396;28;20466;-51
2024/02/21 12:30:22;;;;;;;8.75;4.10;;;12.30;93.80;;;;;;5081146;28;20050;-51
2024/02/21 12:32:50;;;;;;;13.73;4.20;;;12.30;93.70;;;;;;5080649;28;20112;-53
2024/02/21 12:35:17;;;;;;;7.15;3.75;;;12.20;93.50;;;;;;5083561;28;20440;-54
2024/02/21 12:37:42;;;;;;;9.02;4.25;;;12.20;93.70;;;;;;5073190;28;20016;-55
2024/02/21 12:40:10;;;;;;;5.63;3.88;;;12.10;93.20;;;;;;5081090;28;20553;-54
2024/02/21 12:42:36;;;;;;;6.88;3.95;;;12.10;93.10;;;;;;5081205;28;20043;-52
2024/02/21 12:45:05;;;;;;;6.47;4.25;;;12.10;93.10;;;;;;5082449;28;20028;-54